sensor_id;sensor_type;location;lat;lon;timestamp;pressure;altitude;pressure_sealevel;temperature;humidity
13968;BME280;39536;52.198;9.920;2022-08-01T00:02:14;100483.38;;;19.66;100.00
13968;BME280;39536;52.198;9.920;2022-08-01T00:04:40;100485.34;;;19.75;100.00
13968;BME280;39536;52.198;9.920;2022-08-01T00:07:08;100490.28;;;19.80;100.00
13968;BME280;39536;52.198;9.920;2022-08-01T00:09:35;100487.00;;;19.89;100.00
13968;BME280;39536;52.198;9.920;2022-08-01T00:12:01;100484.25;;;19.91;99.59
13968;BME280;39536;52.198;9.920;2022-08-01T00:14:30;100473.84;;;20.00;98.94
13968;BME280;39536;52.198;9.920;2022-08-01T00:16:56;100479.53;;;20.07;98.84
13968;BME280;39536;52.198;9.920;2022-08-01T00:19:23;100480.19;;;19.98;98.89
13968;BME280;39536;52.198;9.920;2022-08-01T00:21:50;100485.66;;;20.07;98.75
13968;BME280;39536;52.198;9.920;2022-08-01T00:24:18;100480.47;;;20.06;98.30
13968;BME280;39536;52.198;9.920;2022-08-01T00:26:44;100476.88;;;20.07;98.27
13968;BME280;39536;52.198;9.920;2022-08-01T00:29:11;100478.34;;;20.11;98.12
13968;BME280;39536;52.198;9.920;2022-08-01T00:31:38;100475.91;;;20.08;97.88
13968;BME280;39536;52.198;9.920;2022-08-01T00:34:04;100467.69;;;20.00;98.26
13968;BME280;39536;52.198;9.920;2022-08-01T00:36:31;100470.75;;;20.06;98.33
13968;BME280;39536;52.198;9.920;2022-08-01T00:38:57;100466.84;;;19.99;98.50
13968;BME280;39536;52.198;9.920;2022-08-01T00:41:25;100478.75;;;19.81;99.24
13968;BME280;39536;52.198;9.920;2022-08-01T00:43:52;100470.59;;;19.84;99.98
13968;BME280;39536;52.198;9.920;2022-08-01T00:46:19;100476.78;;;19.72;100.00
13968;BME280;39536;52.198;9.920;2022-08-01T00:48:46;100477.22;;;19.66;100.00
13968;BME280;39536;52.198;9.920;2022-08-01T00:51:13;100478.78;;;19.68;100.00
13968;BME280;39536;52.198;9.920;2022-08-01T00:53:40;100471.03;;;19.78;100.00
13968;BME280;39536;52.198;9.920;2022-08-01T00:56:07;100475.94;;;19.71;100.00
13968;BME280;39536;52.198;9.920;2022-08-01T00:58:35;100468.63;;;19.62;100.00
13968;BME280;39536;52.198;9.920;2022-08-01T01:01:03;100463.69;;;19.57;100.00
13968;BME280;39536;52.198;9.920;2022-08-01T01:03:29;100471.63;;;19.57;100.00
13968;BME280;39536;52.198;9.920;2022-08-01T01:06:07;100460.00;;;19.60;100.00
13968;BME280;39536;52.198;9.920;2022-08-01T01:08:42;100471.00;;;19.67;100.00
13968;BME280;39536;52.198;9.920;2022-08-01T01:11:13;100469.94;;;19.69;100.00
13968;BME280;39536;52.198;9.920;2022-08-01T01:13:49;100464.00;;;19.53;100.00
13968;BME280;39536;52.198;9.920;2022-08-01T01:16:19;100469.94;;;19.44;100.00
13968;BME280;39536;52.198;9.920;2022-08-01T01:18:48;100471.88;;;19.29;100.00
13968;BME280;39536;52.198;9.920;2022-08-01T01:21:35;100467.13;;;19.21;100.00
13968;BME280;39536;52.198;9.920;2022-08-01T01:24:13;100458.66;;;19.03;100.00
13968;BME280;39536;52.198;9.920;2022-08-01T01:26:48;100471.56;;;19.08;100.00
13968;BME280;39536;52.198;9.920;2022-08-01T01:29:21;100461.44;;;19.14;100.00
13968;BME280;39536;52.198;9.920;2022-08-01T01:31:52;100464.91;;;19.02;100.00
13968;BME280;39536;52.198;9.920;2022-08-01T01:34:22;100475.25;;;19.05;100.00
13968;BME280;39536;52.198;9.920;2022-08-01T01:36:52;100478.44;;;18.98;100.00
13968;BME280;39536;52.198;9.920;2022-08-01T01:39:20;100479.16;;;18.87;100.00
13968;BME280;39536;52.198;9.920;2022-08-01T01:41:49;100478.75;;;18.80;100.00
13968;BME280;39536;52.198;9.920;2022-08-01T01:44:18;100475.69;;;18.86;100.00
13968;BME280;39536;52.198;9.920;2022-08-01T01:46:45;100481.50;;;18.79;100.00
13968;BME280;39536;52.198;9.920;2022-08-01T01:49:13;100475.84;;;18.70;100.00
13968;BME280;39536;52.198;9.920;2022-08-01T01:51:42;100477.47;;;18.73;100.00
13968;BME280;39536;52.198;9.920;2022-08-01T01:54:09;100480.94;;;18.74;100.00
13968;BME280;39536;52.198;9.920;2022-08-01T01:56:36;100476.63;;;18.73;100.00
13968;BME280;39536;52.198;9.920;2022-08-01T01:59:15;100466.97;;;18.72;100.00
13968;BME280;39536;52.198;9.920;2022-08-01T02:01:44;100474.38;;;18.66;100.00
13968;BME280;39536;52.198;9.920;2022-08-01T02:04:14;100473.50;;;18.66;100.00
13968;BME280;39536;52.198;9.920;2022-08-01T02:06:41;100471.81;;;18.65;100.00
13968;BME280;39536;52.198;9.920;2022-08-01T02:09:08;100467.19;;;18.68;100.00
13968;BME280;39536;52.198;9.920;2022-08-01T02:11:36;100475.31;;;18.65;100.00
13968;BME280;39536;52.198;9.920;2022-08-01T02:14:05;100467.50;;;18.64;100.00
13968;BME280;39536;52.198;9.920;2022-08-01T02:16:35;100469.72;;;18.57;100.00
13968;BME280;39536;52.198;9.920;2022-08-01T02:19:03;100475.84;;;18.58;100.00
13968;BME280;39536;52.198;9.920;2022-08-01T02:21:35;100467.59;;;18.62;100.00
13968;BME280;39536;52.198;9.920;2022-08-01T02:24:17;100470.34;;;18.61;100.00
13968;BME280;39536;52.198;9.920;2022-08-01T02:26:47;100478.06;;;18.64;100.00
13968;BME280;39536;52.198;9.920;2022-08-01T02:29:21;100479.75;;;18.65;100.00
13968;BME280;39536;52.198;9.920;2022-08-01T02:31:49;100477.75;;;18.68;100.00
13968;BME280;39536;52.198;9.920;2022-08-01T02:34:22;100477.94;;;18.65;100.00
13968;BME280;39536;52.198;9.920;2022-08-01T02:36:53;100480.50;;;18.67;100.00
13968;BME280;39536;52.198;9.920;2022-08-01T02:39:22;100478.69;;;18.67;100.00
13968;BME280;39536;52.198;9.920;2022-08-01T02:41:54;100480.28;;;18.70;100.00
13968;BME280;39536;52.198;9.920;2022-08-01T02:44:24;100490.00;;;18.69;100.00
13968;BME280;39536;52.198;9.920;2022-08-01T02:46:56;100503.81;;;18.60;100.00
13968;BME280;39536;52.198;9.920;2022-08-01T02:49:29;100499.16;;;18.51;100.00
13968;BME280;39536;52.198;9.920;2022-08-01T02:51:59;100494.69;;;18.39;100.00
13968;BME280;39536;52.198;9.920;2022-08-01T02:54:27;100495.38;;;18.28;100.00
13968;BME280;39536;52.198;9.920;2022-08-01T02:56:56;100500.00;;;18.24;100.00
13968;BME280;39536;52.198;9.920;2022-08-01T02:59:24;100490.25;;;18.12;100.00
13968;BME280;39536;52.198;9.920;2022-08-01T03:01:54;100487.09;;;18.07;100.00
13968;BME280;39536;52.198;9.920;2022-08-01T03:04:22;100507.91;;;17.97;100.00
13968;BME280;39536;52.198;9.920;2022-08-01T03:06:51;100497.66;;;17.93;100.00
13968;BME280;39536;52.198;9.920;2022-08-01T03:09:19;100499.84;;;17.86;100.00
13968;BME280;39536;52.198;9.920;2022-08-01T03:11:49;100496.00;;;17.77;100.00
13968;BME280;39536;52.198;9.920;2022-08-01T03:14:18;100506.06;;;17.85;100.00
13968;BME280;39536;52.198;9.920;2022-08-01T03:16:47;100505.94;;;17.87;100.00
13968;BME280;39536;52.198;9.920;2022-08-01T03:19:15;100503.31;;;17.87;100.00
13968;BME280;39536;52.198;9.920;2022-08-01T03:21:44;100500.22;;;17.94;100.00
13968;BME280;39536;52.198;9.920;2022-08-01T03:24:14;100507.81;;;17.99;100.00
13968;BME280;39536;52.198;9.920;2022-08-01T03:26:42;100504.84;;;18.04;100.00
13968;BME280;39536;52.198;9.920;2022-08-01T03:29:15;100509.00;;;18.08;100.00
13968;BME280;39536;52.198;9.920;2022-08-01T03:31:44;100511.25;;;18.14;100.00
13968;BME280;39536;52.198;9.920;2022-08-01T03:34:11;100504.19;;;18.14;100.00
13968;BME280;39536;52.198;9.920;2022-08-01T03:36:46;100515.28;;;18.19;100.00
13968;BME280;39536;52.198;9.920;2022-08-01T03:39:15;100518.91;;;18.31;100.00
13968;BME280;39536;52.198;9.920;2022-08-01T03:41:47;100512.38;;;18.37;100.00
13968;BME280;39536;52.198;9.920;2022-08-01T03:44:16;100521.53;;;18.31;100.00
13968;BME280;39536;52.198;9.920;2022-08-01T03:46:47;100526.16;;;18.28;100.00
13968;BME280;39536;52.198;9.920;2022-08-01T03:49:18;100532.78;;;18.20;100.00
13968;BME280;39536;52.198;9.920;2022-08-01T03:51:47;100531.31;;;18.16;100.00
13968;BME280;39536;52.198;9.920;2022-08-01T03:54:20;100527.34;;;18.09;100.00
13968;BME280;39536;52.198;9.920;2022-08-01T03:56:48;100509.84;;;18.08;100.00
13968;BME280;39536;52.198;9.920;2022-08-01T03:59:16;100519.44;;;18.09;100.00
13968;BME280;39536;52.198;9.920;2022-08-01T04:01:45;100526.22;;;18.13;100.00
13968;BME280;39536;52.198;9.920;2022-08-01T04:04:12;100533.97;;;18.02;100.00
13968;BME280;39536;52.198;9.920;2022-08-01T04:06:40;100541.31;;;17.97;100.00
13968;BME280;39536;52.198;9.920;2022-08-01T04:09:07;100536.16;;;17.95;100.00
13968;BME280;39536;52.198;9.920;2022-08-01T04:11:35;100529.19;;;17.94;100.00
13968;BME280;39536;52.198;9.920;2022-08-01T04:14:02;100542.75;;;17.88;100.00
13968;BME280;39536;52.198;9.920;2022-08-01T04:16:29;100541.81;;;17.89;100.00
13968;BME280;39536;52.198;9.920;2022-08-01T04:18:55;100555.81;;;17.90;100.00
13968;BME280;39536;52.198;9.920;2022-08-01T04:21:23;100535.41;;;17.93;100.00
13968;BME280;39536;52.198;9.920;2022-08-01T04:23:54;100540.28;;;17.99;100.00
13968;BME280;39536;52.198;9.920;2022-08-01T04:26:24;100549.22;;;17.97;100.00
13968;BME280;39536;52.198;9.920;2022-08-01T04:28:54;100542.84;;;18.01;100.00
13968;BME280;39536;52.198;9.920;2022-08-01T04:31:22;100564.19;;;17.96;100.00
13968;BME280;39536;52.198;9.920;2022-08-01T04:33:53;100562.41;;;17.97;100.00
13968;BME280;39536;52.198;9.920;2022-08-01T04:36:23;100565.69;;;18.00;100.00
13968;BME280;39536;52.198;9.920;2022-08-01T04:38:54;100569.38;;;17.98;100.00
13968;BME280;39536;52.198;9.920;2022-08-01T04:41:23;100578.13;;;17.98;100.00
13968;BME280;39536;52.198;9.920;2022-08-01T04:43:50;100578.97;;;17.99;100.00
13968;BME280;39536;52.198;9.920;2022-08-01T04:46:19;100584.81;;;18.04;100.00
13968;BME280;39536;52.198;9.920;2022-08-01T04:48:46;100580.06;;;18.09;100.00
13968;BME280;39536;52.198;9.920;2022-08-01T04:51:14;100582.81;;;18.08;100.00
13968;BME280;39536;52.198;9.920;2022-08-01T04:53:41;100592.34;;;18.10;100.00
13968;BME280;39536;52.198;9.920;2022-08-01T04:56:08;100588.34;;;18.17;100.00
13968;BME280;39536;52.198;9.920;2022-08-01T04:58:38;100585.72;;;18.17;100.00
13968;BME280;39536;52.198;9.920;2022-08-01T05:01:05;100587.59;;;18.15;100.00
13968;BME280;39536;52.198;9.920;2022-08-01T05:03:33;100599.56;;;18.21;100.00
13968;BME280;39536;52.198;9.920;2022-08-01T05:05:59;100596.63;;;18.26;100.00
13968;BME280;39536;52.198;9.920;2022-08-01T05:08:26;100592.34;;;18.37;100.00
13968;BME280;39536;52.198;9.920;2022-08-01T05:10:53;100598.66;;;18.35;100.00
13968;BME280;39536;52.198;9.920;2022-08-01T05:13:19;100593.00;;;18.41;100.00
13968;BME280;39536;52.198;9.920;2022-08-01T05:15:46;100594.41;;;18.46;100.00
13968;BME280;39536;52.198;9.920;2022-08-01T05:18:13;100593.56;;;18.46;100.00
13968;BME280;39536;52.198;9.920;2022-08-01T05:20:41;100601.84;;;18.40;100.00
13968;BME280;39536;52.198;9.920;2022-08-01T05:23:08;100606.25;;;18.54;100.00
13968;BME280;39536;52.198;9.920;2022-08-01T05:25:35;100607.50;;;18.48;100.00
13968;BME280;39536;52.198;9.920;2022-08-01T05:28:04;100604.50;;;18.40;100.00
13968;BME280;39536;52.198;9.920;2022-08-01T05:30:30;100611.13;;;18.33;100.00
13968;BME280;39536;52.198;9.920;2022-08-01T05:32:57;100613.00;;;18.31;100.00
13968;BME280;39536;52.198;9.920;2022-08-01T05:35:23;100613.66;;;18.34;100.00
13968;BME280;39536;52.198;9.920;2022-08-01T05:37:51;100606.81;;;18.32;100.00
13968;BME280;39536;52.198;9.920;2022-08-01T05:40:18;100614.16;;;18.27;100.00
13968;BME280;39536;52.198;9.920;2022-08-01T05:42:45;100613.59;;;18.21;100.00
13968;BME280;39536;52.198;9.920;2022-08-01T05:45:11;100620.94;;;18.16;100.00
13968;BME280;39536;52.198;9.920;2022-08-01T05:47:38;100614.47;;;18.08;100.00
13968;BME280;39536;52.198;9.920;2022-08-01T05:50:05;100617.66;;;17.98;100.00
13968;BME280;39536;52.198;9.920;2022-08-01T05:52:32;100624.72;;;17.98;100.00
13968;BME280;39536;52.198;9.920;2022-08-01T05:55:00;100622.19;;;17.82;100.00
13968;BME280;39536;52.198;9.920;2022-08-01T05:57:26;100616.63;;;17.87;100.00
13968;BME280;39536;52.198;9.920;2022-08-01T05:59:53;100625.13;;;17.92;100.00
13968;BME280;39536;52.198;9.920;2022-08-01T06:02:19;100627.25;;;17.99;100.00
13968;BME280;39536;52.198;9.920;2022-08-01T06:04:46;100632.53;;;17.99;100.00
13968;BME280;39536;52.198;9.920;2022-08-01T06:07:13;100634.97;;;18.03;100.00
13968;BME280;39536;52.198;9.920;2022-08-01T06:09:39;100625.84;;;18.08;100.00
13968;BME280;39536;52.198;9.920;2022-08-01T06:12:08;100634.78;;;18.20;100.00
13968;BME280;39536;52.198;9.920;2022-08-01T06:14:34;100633.00;;;18.20;100.00
13968;BME280;39536;52.198;9.920;2022-08-01T06:17:01;100640.53;;;18.12;100.00
13968;BME280;39536;52.198;9.920;2022-08-01T06:19:28;100637.88;;;18.27;100.00
13968;BME280;39536;52.198;9.920;2022-08-01T06:21:54;100636.84;;;18.29;100.00
13968;BME280;39536;52.198;9.920;2022-08-01T06:24:21;100643.81;;;18.30;100.00
13968;BME280;39536;52.198;9.920;2022-08-01T06:26:48;100644.84;;;18.28;100.00
13968;BME280;39536;52.198;9.920;2022-08-01T06:29:16;100634.34;;;18.40;100.00
13968;BME280;39536;52.198;9.920;2022-08-01T06:31:43;100643.53;;;18.62;100.00
13968;BME280;39536;52.198;9.920;2022-08-01T06:34:09;100647.47;;;18.69;100.00
13968;BME280;39536;52.198;9.920;2022-08-01T06:36:36;100656.44;;;18.66;100.00
13968;BME280;39536;52.198;9.920;2022-08-01T06:39:03;100657.28;;;18.67;100.00
13968;BME280;39536;52.198;9.920;2022-08-01T06:41:29;100649.56;;;18.64;100.00
13968;BME280;39536;52.198;9.920;2022-08-01T06:43:56;100649.25;;;18.68;100.00
13968;BME280;39536;52.198;9.920;2022-08-01T06:46:24;100646.63;;;18.68;100.00
13968;BME280;39536;52.198;9.920;2022-08-01T06:48:50;100658.53;;;18.76;100.00
13968;BME280;39536;52.198;9.920;2022-08-01T06:51:17;100664.56;;;18.90;100.00
13968;BME280;39536;52.198;9.920;2022-08-01T06:53:45;100659.63;;;18.86;100.00
13968;BME280;39536;52.198;9.920;2022-08-01T06:56:12;100661.69;;;18.81;100.00
13968;BME280;39536;52.198;9.920;2022-08-01T06:58:39;100660.28;;;18.75;100.00
13968;BME280;39536;52.198;9.920;2022-08-01T07:01:06;100664.66;;;18.76;100.00
13968;BME280;39536;52.198;9.920;2022-08-01T07:03:34;100650.41;;;18.64;100.00
13968;BME280;39536;52.198;9.920;2022-08-01T07:06:01;100659.94;;;18.67;100.00
13968;BME280;39536;52.198;9.920;2022-08-01T07:08:27;100658.88;;;18.69;100.00
13968;BME280;39536;52.198;9.920;2022-08-01T07:10:54;100665.84;;;18.70;100.00
13968;BME280;39536;52.198;9.920;2022-08-01T07:13:24;100658.06;;;18.55;100.00
13968;BME280;39536;52.198;9.920;2022-08-01T07:15:51;100670.19;;;18.30;100.00
13968;BME280;39536;52.198;9.920;2022-08-01T07:18:19;100677.06;;;18.33;100.00
13968;BME280;39536;52.198;9.920;2022-08-01T07:20:47;100674.59;;;18.15;100.00
13968;BME280;39536;52.198;9.920;2022-08-01T07:23:13;100689.31;;;18.05;100.00
13968;BME280;39536;52.198;9.920;2022-08-01T07:25:40;100672.72;;;18.03;100.00
13968;BME280;39536;52.198;9.920;2022-08-01T07:28:07;100681.88;;;17.83;100.00
13968;BME280;39536;52.198;9.920;2022-08-01T07:30:34;100671.00;;;17.73;100.00
13968;BME280;39536;52.198;9.920;2022-08-01T07:33:01;100680.06;;;17.84;100.00
13968;BME280;39536;52.198;9.920;2022-08-01T07:35:28;100682.72;;;17.98;100.00
13968;BME280;39536;52.198;9.920;2022-08-01T07:37:56;100676.78;;;17.94;100.00
13968;BME280;39536;52.198;9.920;2022-08-01T07:40:22;100689.56;;;18.00;100.00
13968;BME280;39536;52.198;9.920;2022-08-01T07:42:49;100688.53;;;18.03;100.00
13968;BME280;39536;52.198;9.920;2022-08-01T07:45:16;100685.00;;;18.04;100.00
13968;BME280;39536;52.198;9.920;2022-08-01T07:47:43;100697.22;;;18.19;100.00
13968;BME280;39536;52.198;9.920;2022-08-01T07:50:09;100693.25;;;18.27;100.00
13968;BME280;39536;52.198;9.920;2022-08-01T07:52:37;100694.28;;;18.38;100.00
13968;BME280;39536;52.198;9.920;2022-08-01T07:55:07;100692.75;;;18.34;100.00
13968;BME280;39536;52.198;9.920;2022-08-01T07:57:34;100699.19;;;18.44;100.00
13968;BME280;39536;52.198;9.920;2022-08-01T08:00:01;100693.91;;;18.44;100.00
13968;BME280;39536;52.198;9.920;2022-08-01T08:02:28;100702.09;;;18.54;100.00
13968;BME280;39536;52.198;9.920;2022-08-01T08:04:55;100708.91;;;18.71;100.00
13968;BME280;39536;52.198;9.920;2022-08-01T08:07:21;100708.28;;;18.67;100.00
13968;BME280;39536;52.198;9.920;2022-08-01T08:09:51;100709.88;;;18.70;100.00
13968;BME280;39536;52.198;9.920;2022-08-01T08:12:19;100711.13;;;18.79;100.00
13968;BME280;39536;52.198;9.920;2022-08-01T08:14:46;100713.34;;;18.70;100.00
13968;BME280;39536;52.198;9.920;2022-08-01T08:17:12;100713.19;;;18.74;100.00
13968;BME280;39536;52.198;9.920;2022-08-01T08:19:39;100699.47;;;18.81;100.00
13968;BME280;39536;52.198;9.920;2022-08-01T08:22:06;100708.41;;;18.93;100.00
13968;BME280;39536;52.198;9.920;2022-08-01T08:24:33;100709.84;;;19.11;100.00
13968;BME280;39536;52.198;9.920;2022-08-01T08:27:01;100712.34;;;19.27;100.00
13968;BME280;39536;52.198;9.920;2022-08-01T08:29:30;100719.22;;;19.30;100.00
13968;BME280;39536;52.198;9.920;2022-08-01T08:31:58;100716.91;;;19.38;100.00
13968;BME280;39536;52.198;9.920;2022-08-01T08:34:27;100711.75;;;19.49;100.00
13968;BME280;39536;52.198;9.920;2022-08-01T08:36:55;100720.44;;;19.51;99.50
13968;BME280;39536;52.198;9.920;2022-08-01T08:39:23;100720.00;;;19.45;99.11
13968;BME280;39536;52.198;9.920;2022-08-01T08:41:50;100703.03;;;19.34;99.85
13968;BME280;39536;52.198;9.920;2022-08-01T08:44:17;100727.91;;;19.45;100.00
13968;BME280;39536;52.198;9.920;2022-08-01T08:46:48;100731.78;;;19.26;98.97
13968;BME280;39536;52.198;9.920;2022-08-01T08:49:18;100741.50;;;19.26;100.00
13968;BME280;39536;52.198;9.920;2022-08-01T08:51:47;100737.38;;;19.34;100.00
13968;BME280;39536;52.198;9.920;2022-08-01T08:54:16;100748.38;;;19.28;100.00
13968;BME280;39536;52.198;9.920;2022-08-01T08:56:45;100740.31;;;19.17;100.00
13968;BME280;39536;52.198;9.920;2022-08-01T08:59:13;100749.88;;;19.05;100.00
13968;BME280;39536;52.198;9.920;2022-08-01T09:01:40;100744.09;;;19.13;100.00
13968;BME280;39536;52.198;9.920;2022-08-01T09:04:08;100753.19;;;19.22;99.76
13968;BME280;39536;52.198;9.920;2022-08-01T09:06:35;100750.59;;;19.34;99.84
13968;BME280;39536;52.198;9.920;2022-08-01T09:09:03;100755.00;;;19.21;96.78
13968;BME280;39536;52.198;9.920;2022-08-01T09:11:30;100761.69;;;19.27;95.36
13968;BME280;39536;52.198;9.920;2022-08-01T09:14:09;100762.91;;;19.21;94.39
13968;BME280;39536;52.198;9.920;2022-08-01T09:16:39;100767.75;;;19.14;94.76
13968;BME280;39536;52.198;9.920;2022-08-01T09:19:10;100760.06;;;19.24;93.66
13968;BME280;39536;52.198;9.920;2022-08-01T09:21:37;100768.06;;;19.50;93.06
13968;BME280;39536;52.198;9.920;2022-08-01T09:24:04;100766.25;;;19.65;90.37
13968;BME280;39536;52.198;9.920;2022-08-01T09:26:39;100764.06;;;19.97;90.25
13968;BME280;39536;52.198;9.920;2022-08-01T09:29:07;100764.41;;;20.18;91.04
13968;BME280;39536;52.198;9.920;2022-08-01T09:31:39;100768.72;;;20.06;90.04
13968;BME280;39536;52.198;9.920;2022-08-01T09:34:08;100777.00;;;20.01;90.72
13968;BME280;39536;52.198;9.920;2022-08-01T09:36:50;100765.78;;;19.98;90.42
13968;BME280;39536;52.198;9.920;2022-08-01T09:39:22;100785.47;;;20.06;90.58
13968;BME280;39536;52.198;9.920;2022-08-01T09:41:49;100802.78;;;19.85;90.48
13968;BME280;39536;52.198;9.920;2022-08-01T09:44:16;100784.56;;;19.80;90.40
13968;BME280;39536;52.198;9.920;2022-08-01T09:46:51;100791.66;;;19.80;88.36
13968;BME280;39536;52.198;9.920;2022-08-01T09:49:29;100805.50;;;19.83;89.57
13968;BME280;39536;52.198;9.920;2022-08-01T09:51:57;100802.16;;;19.94;88.85
13968;BME280;39536;52.198;9.920;2022-08-01T09:54:30;100804.47;;;19.86;88.56
13968;BME280;39536;52.198;9.920;2022-08-01T09:57:11;100809.53;;;19.76;88.92
13968;BME280;39536;52.198;9.920;2022-08-01T09:59:40;100805.72;;;19.80;89.83
13968;BME280;39536;52.198;9.920;2022-08-01T10:02:08;100805.28;;;19.74;90.32
13968;BME280;39536;52.198;9.920;2022-08-01T10:04:37;100807.94;;;19.87;88.92
13968;BME280;39536;52.198;9.920;2022-08-01T10:07:05;100812.53;;;19.97;89.76
13968;BME280;39536;52.198;9.920;2022-08-01T10:09:35;100815.69;;;20.02;88.37
13968;BME280;39536;52.198;9.920;2022-08-01T10:12:03;100820.31;;;19.86;88.16
13968;BME280;39536;52.198;9.920;2022-08-01T10:14:30;100819.06;;;19.79;88.13
13968;BME280;39536;52.198;9.920;2022-08-01T10:16:59;100816.06;;;19.71;88.56
13968;BME280;39536;52.198;9.920;2022-08-01T10:19:30;100819.66;;;19.70;87.51
13968;BME280;39536;52.198;9.920;2022-08-01T10:21:59;100812.97;;;19.64;85.17
13968;BME280;39536;52.198;9.920;2022-08-01T10:24:28;100820.63;;;19.54;85.37
13968;BME280;39536;52.198;9.920;2022-08-01T10:26:57;100826.06;;;19.66;85.08
13968;BME280;39536;52.198;9.920;2022-08-01T10:29:31;100820.59;;;19.69;84.97
13968;BME280;39536;52.198;9.920;2022-08-01T10:32:01;100815.84;;;19.74;83.33
13968;BME280;39536;52.198;9.920;2022-08-01T10:34:29;100822.13;;;19.86;84.03
13968;BME280;39536;52.198;9.920;2022-08-01T10:36:58;100824.84;;;19.84;83.23
13968;BME280;39536;52.198;9.920;2022-08-01T10:39:25;100806.38;;;19.97;84.10
13968;BME280;39536;52.198;9.920;2022-08-01T10:41:54;100804.69;;;20.08;82.57
13968;BME280;39536;52.198;9.920;2022-08-01T10:44:22;100813.72;;;20.19;84.01
13968;BME280;39536;52.198;9.920;2022-08-01T10:46:54;100814.66;;;20.30;82.70
13968;BME280;39536;52.198;9.920;2022-08-01T10:49:24;100814.03;;;20.27;81.63
13968;BME280;39536;52.198;9.920;2022-08-01T10:51:54;100820.06;;;20.16;81.52
13968;BME280;39536;52.198;9.920;2022-08-01T10:54:25;100822.50;;;20.19;82.67
13968;BME280;39536;52.198;9.920;2022-08-01T10:56:52;100822.09;;;20.25;82.76
13968;BME280;39536;52.198;9.920;2022-08-01T10:59:23;100814.78;;;20.29;82.86
13968;BME280;39536;52.198;9.920;2022-08-01T11:01:57;100816.38;;;20.19;82.27
13968;BME280;39536;52.198;9.920;2022-08-01T11:04:34;100823.22;;;20.08;81.97
13968;BME280;39536;52.198;9.920;2022-08-01T11:07:07;100801.41;;;19.92;81.17
13968;BME280;39536;52.198;9.920;2022-08-01T11:09:41;100819.84;;;19.94;81.85
13968;BME280;39536;52.198;9.920;2022-08-01T11:12:10;100817.84;;;20.10;81.45
13968;BME280;39536;52.198;9.920;2022-08-01T11:17:43;100820.69;;;20.45;77.08
13968;BME280;39536;52.198;9.920;2022-08-01T11:20:14;100815.75;;;20.53;78.03
13968;BME280;39536;52.198;9.920;2022-08-01T11:26:21;100828.75;;;20.69;78.27
13968;BME280;39536;52.198;9.920;2022-08-01T11:29:17;100822.56;;;20.94;78.14
13968;BME280;39536;52.198;9.920;2022-08-01T11:31:43;100824.97;;;21.10;77.35
13968;BME280;39536;52.198;9.920;2022-08-01T11:34:10;100828.28;;;21.01;75.94
13968;BME280;39536;52.198;9.920;2022-08-01T11:36:37;100838.69;;;20.91;75.38
13968;BME280;39536;52.198;9.920;2022-08-01T11:39:17;100832.78;;;20.75;76.45
13968;BME280;39536;52.198;9.920;2022-08-01T11:41:46;100827.06;;;20.56;76.58
13968;BME280;39536;52.198;9.920;2022-08-01T11:44:16;100839.16;;;20.60;77.19
13968;BME280;39536;52.198;9.920;2022-08-01T11:49:43;100844.22;;;20.63;75.71
13968;BME280;39536;52.198;9.920;2022-08-01T11:52:12;100837.22;;;20.62;77.38
13968;BME280;39536;52.198;9.920;2022-08-01T11:54:40;100841.56;;;20.75;74.03
13968;BME280;39536;52.198;9.920;2022-08-01T11:57:10;100843.66;;;20.83;74.24
13968;BME280;39536;52.198;9.920;2022-08-01T11:59:39;100833.06;;;20.83;73.34
13968;BME280;39536;52.198;9.920;2022-08-01T12:02:16;100829.91;;;20.91;72.99
13968;BME280;39536;52.198;9.920;2022-08-01T12:04:48;100832.78;;;21.12;72.69
13968;BME280;39536;52.198;9.920;2022-08-01T12:07:15;100830.78;;;21.15;71.36
13968;BME280;39536;52.198;9.920;2022-08-01T12:09:42;100849.78;;;21.09;71.55
13968;BME280;39536;52.198;9.920;2022-08-01T12:12:10;100837.47;;;21.08;73.42
13968;BME280;39536;52.198;9.920;2022-08-01T12:14:38;100843.38;;;21.25;74.36
13968;BME280;39536;52.198;9.920;2022-08-01T12:17:04;100852.56;;;21.32;72.85
13968;BME280;39536;52.198;9.920;2022-08-01T12:19:31;100842.22;;;21.16;74.88
13968;BME280;39536;52.198;9.920;2022-08-01T12:22:08;100848.69;;;21.12;72.92
13968;BME280;39536;52.198;9.920;2022-08-01T12:24:36;100849.22;;;21.17;73.61
13968;BME280;39536;52.198;9.920;2022-08-01T12:27:04;100834.50;;;21.50;72.74
13968;BME280;39536;52.198;9.920;2022-08-01T12:29:34;100839.38;;;21.67;70.59
13968;BME280;39536;52.198;9.920;2022-08-01T12:32:01;100836.34;;;21.84;69.75
13968;BME280;39536;52.198;9.920;2022-08-01T12:34:28;100838.53;;;21.90;69.48
13968;BME280;39536;52.198;9.920;2022-08-01T12:36:56;100846.28;;;21.70;70.58
13968;BME280;39536;52.198;9.920;2022-08-01T12:39:29;100850.38;;;21.74;69.71
13968;BME280;39536;52.198;9.920;2022-08-01T12:41:56;100843.75;;;21.44;71.82
13968;BME280;39536;52.198;9.920;2022-08-01T12:44:23;100845.19;;;21.48;71.00
13968;BME280;39536;52.198;9.920;2022-08-01T12:46:51;100853.97;;;21.12;71.20
13968;BME280;39536;52.198;9.920;2022-08-01T12:49:18;100851.41;;;21.23;71.69
13968;BME280;39536;52.198;9.920;2022-08-01T12:51:45;100845.34;;;21.47;70.72
13968;BME280;39536;52.198;9.920;2022-08-01T12:54:11;100855.81;;;21.48;70.10
13968;BME280;39536;52.198;9.920;2022-08-01T12:56:39;100849.44;;;21.51;69.97
13968;BME280;39536;52.198;9.920;2022-08-01T12:59:19;100849.44;;;21.75;70.07
13968;BME280;39536;52.198;9.920;2022-08-01T13:01:46;100843.38;;;21.97;68.34